Time;durP1;ratioP1;P1;durP2;ratioP2;P2;SDS_P1;SDS_P2;PMS_P1;PMS_P2;Temp;Humidity;BMP_temperature;BMP_pressure;BME280_temperature;BME280_humidity;BME280_pressure;Samples;Min_cycle;Max_cycle;Signal;HPM_P1;HPM_P2
2024/02/02 00:00:07;;;;;;;;;;;5.10;99.90;;;;;;5076009;28;19940;-79
2024/02/02 00:02:37;;;;;;;;;;;5.10;99.90;;;;;;5039683;28;20004;-79
2024/02/02 00:05:06;;;;;;;;;;;5.10;99.90;;;;;;5047722;28;19931;-78
2024/02/02 00:07:32;;;;;;;;;;;5.10;99.90;;;;;;5057856;28;19917;-79
2024/02/02 00:09:59;;;;;;;;;;;5.20;99.90;;;;;;5044676;28;20259;-78
2024/02/02 00:12:25;;;;;;;;;;;5.20;99.90;;;;;;5044498;28;19917;-79
2024/02/02 00:14:50;;;;;;;;;;;5.20;99.90;;;;;;5054311;28;19957;-79
2024/02/02 00:17:18;;;;;;;;;;;5.20;99.90;;;;;;5047851;28;19948;-79
2024/02/02 00:19:44;;;;;;;;;;;5.20;99.90;;;;;;5066148;28;19970;-79
2024/02/02 00:22:09;;;;;;;;;;;5.20;99.90;;;;;;5031916;28;19921;-79
2024/02/02 00:24:35;;;;;;;;;;;5.20;99.90;;;;;;5047561;28;19920;-80
2024/02/02 00:27:02;;;;;;;;;;;5.20;99.90;;;;;;5055948;28;22431;-80
2024/02/02 00:29:28;;;;;;;;;;;5.20;99.90;;;;;;5037589;28;19920;-80
2024/02/02 00:31:55;;;;;;;;;;;5.20;99.90;;;;;;5047189;28;19916;-78
2024/02/02 00:34:20;;;;;;;;;;;5.20;99.90;;;;;;5065683;28;20346;-79
2024/02/02 00:36:46;;;;;;;;;;;5.30;99.90;;;;;;5060416;28;19993;-79
2024/02/02 00:39:12;;;;;;;;;;;5.30;99.90;;;;;;5047737;28;20442;-79
2024/02/02 00:41:38;;;;;;;;;;;5.30;99.90;;;;;;5041178;28;20248;-78
2024/02/02 00:44:04;;;;;;;;;;;5.30;99.90;;;;;;5064762;28;20297;-80
2024/02/02 00:46:29;;;;;;;;;;;5.40;99.90;;;;;;5038192;28;20086;-80
2024/02/02 00:48:55;;;;;;;;;;;5.40;99.90;;;;;;5057397;28;19921;-79
2024/02/02 00:51:21;;;;;;;;;;;5.40;99.90;;;;;;5046467;28;20345;-79
2024/02/02 00:53:47;;;;;;;;;;;5.40;99.90;;;;;;5035119;28;19930;-79
2024/02/02 00:56:13;;;;;;;;;;;5.40;99.90;;;;;;5045288;28;20027;-79
2024/02/02 00:58:38;;;;;;;;;;;5.40;99.90;;;;;;5053833;28;20329;-79
2024/02/02 01:01:04;;;;;;;;;;;5.40;99.90;;;;;;5050842;28;20229;-79
2024/02/02 01:03:33;;;;;;;;;;;5.40;99.90;;;;;;5032798;28;19942;-79
2024/02/02 01:05:59;;;;;;;;;;;5.40;99.90;;;;;;5051322;28;19917;-79
2024/02/02 01:08:25;;;;;;;;;;;5.40;99.90;;;;;;5048983;28;19917;-78
2024/02/02 01:10:51;;;;;;;;;;;5.40;99.90;;;;;;5048718;28;19917;-77
2024/02/02 01:13:17;;;;;;;;;;;5.40;99.90;;;;;;5032864;28;20019;-78
2024/02/02 01:15:42;;;;;;;;;;;5.50;99.90;;;;;;5056748;28;19956;-78
2024/02/02 01:18:08;;;;;;;;;;;5.50;99.90;;;;;;5031312;28;19947;-79
2024/02/02 01:20:34;;;;;;;;;;;5.50;99.90;;;;;;5033080;28;20041;-80
2024/02/02 01:23:00;;;;;;;;;;;5.50;99.90;;;;;;5024951;28;19917;-79
2024/02/02 01:25:29;;;;;;;;;;;5.50;99.90;;;;;;5042617;28;19999;-79
2024/02/02 01:27:55;;;;;;;;;;;5.50;99.90;;;;;;5057423;28;19921;-79
2024/02/02 01:30:20;;;;;;;;;;;5.50;99.90;;;;;;5051662;28;19947;-79
2024/02/02 01:32:46;;;;;;;;;;;5.50;99.90;;;;;;5060149;28;19912;-74
2024/02/02 01:35:12;;;;;;;;;;;5.50;99.90;;;;;;5039837;28;19916;-75
2024/02/02 01:37:37;;;;;;;;;;;5.50;99.90;;;;;;5039493;28;19921;-75
2024/02/02 01:40:03;;;;;;;;;;;5.50;99.90;;;;;;5057253;28;19928;-75
2024/02/02 01:42:29;;;;;;;;;;;5.50;99.90;;;;;;5023851;28;20403;-74
2024/02/02 01:44:55;;;;;;;;;;;5.50;99.90;;;;;;5075145;28;19999;-74
2024/02/02 01:47:21;;;;;;;;;;;5.50;99.90;;;;;;5057237;28;19913;-75
2024/02/02 01:49:48;;;;;;;;;;;5.50;99.90;;;;;;5049560;28;20616;-75
2024/02/02 01:52:14;;;;;;;;;;;5.60;99.90;;;;;;5069356;28;19970;-74
2024/02/02 01:54:43;;;;;;;;;;;5.50;99.90;;;;;;5056965;28;19924;-75
2024/02/02 01:57:09;;;;;;;;;;;5.50;99.90;;;;;;5056681;28;19927;-75
2024/02/02 01:59:34;;;;;;;;;;;5.50;99.90;;;;;;5049637;28;19912;-74
2024/02/02 02:02:00;;;;;;;;;;;5.50;99.90;;;;;;5076616;28;20009;-74
2024/02/02 02:04:26;;;;;;;;;;;5.60;99.90;;;;;;5059265;28;19917;-74
2024/02/02 02:06:51;;;;;;;;;;;5.50;99.90;;;;;;5068426;28;19917;-74
2024/02/02 02:09:17;;;;;;;;;;;5.50;99.90;;;;;;5056131;28;19917;-74
2024/02/02 02:11:43;;;;;;;;;;;5.50;99.90;;;;;;5055347;28;19923;-75
2024/02/02 02:14:09;;;;;;;;;;;5.50;99.90;;;;;;5039104;28;19967;-75
2024/02/02 02:16:34;;;;;;;;;;;5.50;99.90;;;;;;5039164;28;19971;-74
2024/02/02 02:19:03;;;;;;;;;;;5.50;99.90;;;;;;5038458;28;19921;-74
2024/02/02 02:21:29;;;;;;;;;;;5.50;99.90;;;;;;5055427;28;19917;-75
2024/02/02 02:23:54;;;;;;;;;;;5.50;99.90;;;;;;5055875;28;19923;-75
2024/02/02 02:26:22;;;;;;;;;;;5.50;99.90;;;;;;5037305;28;19916;-75
2024/02/02 02:28:50;;;;;;;;;;;5.50;99.90;;;;;;5075708;28;20379;-75
2024/02/02 02:31:16;;;;;;;;;;;5.50;99.90;;;;;;5064224;28;19920;-74
2024/02/02 02:33:42;;;;;;;;;;;5.50;99.90;;;;;;5057463;28;19919;-75
2024/02/02 02:36:08;;;;;;;;;;;5.40;99.90;;;;;;5058617;28;19916;-75
2024/02/02 02:38:34;;;;;;;;;;;5.40;99.90;;;;;;5071326;28;19912;-75
2024/02/02 02:41:00;;;;;;;;;;;5.40;99.90;;;;;;5059425;28;19912;-75
2024/02/02 02:43:29;;;;;;;;;;;5.40;99.90;;;;;;5076478;28;19913;-75
2024/02/02 02:45:55;;;;;;;;;;;5.40;99.90;;;;;;5076069;28;20245;-75
2024/02/02 02:48:21;;;;;;;;;;;5.40;99.90;;;;;;5059696;28;19916;-75
2024/02/02 02:50:46;;;;;;;;;;;5.40;99.90;;;;;;5069735;28;20376;-76
2024/02/02 02:53:12;;;;;;;;;;;5.40;99.90;;;;;;5022901;28;20029;-75
2024/02/02 02:55:38;;;;;;;;;;;5.30;99.90;;;;;;5039291;28;20525;-76
2024/02/02 02:58:04;;;;;;;;;;;5.40;99.90;;;;;;5027764;28;19916;-74
2024/02/02 03:00:31;;;;;;;;;;;5.30;99.90;;;;;;5072745;28;19917;-75
2024/02/02 03:02:57;;;;;;;;;;;5.40;99.90;;;;;;5038847;28;19920;-75
2024/02/02 03:05:24;;;;;;;;;;;5.30;99.90;;;;;;5055507;28;19920;-75
2024/02/02 03:07:49;;;;;;;;;;;5.30;99.90;;;;;;5058309;28;20347;-75
2024/02/02 03:10:15;;;;;;;;;;;5.30;99.90;;;;;;5075820;28;20334;-76
2024/02/02 03:12:41;;;;;;;;;;;5.40;99.90;;;;;;5059185;28;20598;-75
2024/02/02 03:15:07;;;;;;;;;;;5.30;99.90;;;;;;5055358;28;19967;-75
2024/02/02 03:17:33;;;;;;;;;;;5.30;99.90;;;;;;5054605;28;19912;-75
2024/02/02 03:19:59;;;;;;;;;;;5.40;99.90;;;;;;5055109;28;19973;-75
2024/02/02 03:22:24;;;;;;;;;;;5.40;99.90;;;;;;5049928;28;19927;-75
2024/02/02 03:24:50;;;;;;;;;;;5.40;99.90;;;;;;5074733;28;19921;-75
2024/02/02 03:27:17;;;;;;;;;;;5.40;99.90;;;;;;5058685;28;20422;-76
2024/02/02 03:29:43;;;;;;;;;;;5.40;99.90;;;;;;5021568;28;19917;-75
2024/02/02 03:32:10;;;;;;;;;;;5.40;99.90;;;;;;5053974;28;20355;-75
2024/02/02 03:34:35;;;;;;;;;;;5.40;99.90;;;;;;5037939;28;19917;-75
2024/02/02 03:37:02;;;;;;;;;;;5.40;99.90;;;;;;5056287;28;19943;-75
2024/02/02 03:39:28;;;;;;;;;;;5.40;99.90;;;;;;5074112;28;19927;-75
2024/02/02 03:41:54;;;;;;;;;;;5.40;99.90;;;;;;5058033;28;19917;-74
2024/02/02 03:44:19;;;;;;;;;;;5.40;99.90;;;;;;5050636;28;20395;-74
2024/02/02 03:46:45;;;;;;;;;;;5.40;99.90;;;;;;5039745;28;20005;-75
2024/02/02 03:49:11;;;;;;;;;;;5.40;99.90;;;;;;5059339;28;20248;-75
2024/02/02 03:51:37;;;;;;;;;;;5.50;99.90;;;;;;5056890;28;19944;-75
2024/02/02 03:54:04;;;;;;;;;;;5.30;99.90;;;;;;5074952;28;19927;-74
2024/02/02 03:56:30;;;;;;;;;;;5.40;99.90;;;;;;5073285;28;19912;-75
2024/02/02 03:58:56;;;;;;;;;;;5.40;99.90;;;;;;5056370;28;20007;-75
2024/02/02 04:01:21;;;;;;;;;;;5.40;99.90;;;;;;5054298;28;19917;-75
2024/02/02 04:03:48;;;;;;;;;;;5.40;99.90;;;;;;5054906;28;19916;-75
2024/02/02 04:06:14;;;;;;;;;;;5.40;99.90;;;;;;5046028;28;19917;-75
2024/02/02 04:08:40;;;;;;;;;;;5.40;99.90;;;;;;5050972;28;20000;-75
2024/02/02 04:11:07;;;;;;;;;;;5.40;99.90;;;;;;5018262;28;20406;-75
2024/02/02 04:13:33;;;;;;;;;;;5.40;99.90;;;;;;5035456;28;19952;-75
2024/02/02 04:15:59;;;;;;;;;;;5.40;99.90;;;;;;5053792;28;19978;-74
2024/02/02 04:18:25;;;;;;;;;;;5.40;99.90;;;;;;5037398;28;19917;-76
2024/02/02 04:20:53;;;;;;;;;;;5.40;99.90;;;;;;5037033;28;19927;-75
2024/02/02 04:23:21;;;;;;;;;;;5.50;99.90;;;;;;5053187;28;19974;-75
2024/02/02 04:25:47;;;;;;;;;;;5.60;99.90;;;;;;5036809;28;19924;-75
2024/02/02 04:28:12;;;;;;;;;;;5.50;99.90;;;;;;5073413;28;19920;-75
2024/02/02 04:30:38;;;;;;;;;;;5.70;99.90;;;;;;5057140;28;19977;-75
2024/02/02 04:33:04;;;;;;;;;;;5.50;99.90;;;;;;5072598;28;20313;-74
2024/02/02 04:35:34;;;;;;;;;;;5.60;99.90;;;;;;5053308;28;19952;-75
2024/02/02 04:38:04;;;;;;;;;;;5.60;99.90;;;;;;5037909;28;19920;-75
2024/02/02 04:40:30;;;;;;;;;;;5.60;99.90;;;;;;5008374;28;19960;-74
2024/02/02 04:42:56;;;;;;;;;;;5.60;99.90;;;;;;5071777;28;19920;-75
2024/02/02 04:45:21;;;;;;;;;;;5.60;99.90;;;;;;5036058;28;20011;-75
2024/02/02 04:47:47;;;;;;;;;;;5.70;99.90;;;;;;5049668;28;20012;-75
2024/02/02 04:50:13;;;;;;;;;;;5.50;99.90;;;;;;5034008;28;19924;-75
2024/02/02 04:52:39;;;;;;;;;;;5.60;99.90;;;;;;5051178;28;19913;-75
2024/02/02 04:55:07;;;;;;;;;;;5.50;99.90;;;;;;5057484;28;19973;-75
2024/02/02 04:57:33;;;;;;;;;;;5.60;99.90;;;;;;5042081;28;20269;-75
2024/02/02 04:59:58;;;;;;;;;;;5.60;99.90;;;;;;5058040;28;19923;-75
2024/02/02 05:02:25;;;;;;;;;;;5.60;99.90;;;;;;5041053;28;19975;-75
2024/02/02 05:04:51;;;;;;;;;;;5.60;99.90;;;;;;5057808;28;19928;-75
2024/02/02 05:07:16;;;;;;;;;;;5.60;99.90;;;;;;5057063;28;19913;-78
2024/02/02 05:09:42;;;;;;;;;;;5.60;99.90;;;;;;5058501;28;20328;-79
2024/02/02 05:12:07;;;;;;;;;;;5.60;99.90;;;;;;5040544;28;19956;-78
2024/02/02 05:14:33;;;;;;;;;;;5.60;99.90;;;;;;5040877;28;19944;-78
2024/02/02 05:16:59;;;;;;;;;;;5.60;99.90;;;;;;5023924;28;19913;-78
2024/02/02 05:19:25;;;;;;;;;;;5.60;99.90;;;;;;5023641;28;19923;-78
2024/02/02 05:21:51;;;;;;;;;;;5.60;99.90;;;;;;5023295;28;19917;-78
2024/02/02 05:24:16;;;;;;;;;;;5.60;99.90;;;;;;5067484;28;20317;-78
2024/02/02 05:26:42;;;;;;;;;;;5.60;99.90;;;;;;5062416;28;19921;-78
2024/02/02 05:29:08;;;;;;;;;;;5.60;99.90;;;;;;5056429;28;20019;-79
2024/02/02 05:31:33;;;;;;;;;;;5.60;99.90;;;;;;5062479;28;19912;-78
2024/02/02 05:33:59;;;;;;;;;;;5.60;99.90;;;;;;5076127;28;19956;-78
2024/02/02 05:36:25;;;;;;;;;;;5.60;99.90;;;;;;5075177;28;19912;-78
2024/02/02 05:38:50;;;;;;;;;;;5.60;99.90;;;;;;5045693;28;19924;-79
2024/02/02 05:41:16;;;;;;;;;;;5.60;99.90;;;;;;5056365;28;19925;-78
2024/02/02 05:43:42;;;;;;;;;;;5.60;99.90;;;;;;5049609;28;20543;-78
2024/02/02 05:46:07;;;;;;;;;;;5.60;99.90;;;;;;5047065;28;19916;-79
2024/02/02 05:48:33;;;;;;;;;;;5.60;99.90;;;;;;5040517;28;19920;-78
2024/02/02 05:50:59;;;;;;;;;;;5.60;99.90;;;;;;5040127;28;19916;-78
2024/02/02 05:53:25;;;;;;;;;;;5.60;99.90;;;;;;5064235;28;19920;-78
2024/02/02 05:55:51;;;;;;;;;;;5.60;99.90;;;;;;5057630;28;20439;-79
2024/02/02 05:58:17;;;;;;;;;;;5.60;99.90;;;;;;5024129;28;20389;-78
2024/02/02 06:00:43;;;;;;;;;;;5.60;99.90;;;;;;5037848;28;20020;-78
2024/02/02 06:03:08;;;;;;;;;;;5.70;99.90;;;;;;5036377;28;19928;-78
2024/02/02 06:05:34;;;;;;;;;;;5.70;99.90;;;;;;5036376;28;19917;-78
2024/02/02 06:08:01;;;;;;;;;;;5.70;99.90;;;;;;5056919;28;20325;-78
2024/02/02 06:10:27;;;;;;;;;;;5.70;99.90;;;;;;5059415;28;19913;-79
2024/02/02 06:12:53;;;;;;;;;;;5.70;99.90;;;;;;5059512;28;19951;-78
2024/02/02 06:15:19;;;;;;;;;;;5.80;99.90;;;;;;5053971;28;19983;-78
2024/02/02 06:17:45;;;;;;;;;;;5.70;99.90;;;;;;5075520;28;20000;-78
2024/02/02 06:20:11;;;;;;;;;;;5.70;99.90;;;;;;5076265;28;19917;-79
2024/02/02 06:22:36;;;;;;;;;;;5.80;99.90;;;;;;5057894;28;19917;-79
2024/02/02 06:25:03;;;;;;;;;;;5.70;99.90;;;;;;5039781;28;19923;-79
2024/02/02 06:27:30;;;;;;;;;;;5.70;99.90;;;;;;5039548;28;19951;-79
2024/02/02 06:29:57;;;;;;;;;;;5.80;99.90;;;;;;5055768;28;19912;-79
2024/02/02 06:32:23;;;;;;;;;;;5.80;99.90;;;;;;5044285;28;20368;-79
2024/02/02 06:34:55;;;;;;;;;;;5.70;99.90;;;;;;5057627;28;19928;-79
2024/02/02 06:37:22;;;;;;;;;;;5.70;99.90;;;;;;5059782;28;20271;-78
2024/02/02 06:39:48;;;;;;;;;;;5.80;99.90;;;;;;5076340;28;19923;-78
2024/02/02 06:42:14;;;;;;;;;;;5.80;99.90;;;;;;5071028;28;19917;-78
2024/02/02 06:44:39;;;;;;;;;;;5.80;99.90;;;;;;5039691;28;20224;-79
2024/02/02 06:47:05;;;;;;;;;;;5.80;99.90;;;;;;5056370;28;19939;-79
2024/02/02 06:49:31;;;;;;;;;;;5.70;99.90;;;;;;5072628;28;20356;-79
2024/02/02 06:51:56;;;;;;;;;;;5.70;99.90;;;;;;5055785;28;20369;-79
2024/02/02 06:54:23;;;;;;;;;;;5.70;99.90;;;;;;5045288;28;19913;-79
2024/02/02 06:56:51;;;;;;;;;;;5.70;99.90;;;;;;5052948;28;19927;-78
2024/02/02 06:59:16;;;;;;;;;;;5.70;99.90;;;;;;5066318;28;19927;-78
2024/02/02 07:01:42;;;;;;;;;;;5.70;99.90;;;;;;5038595;28;19921;-79
2024/02/02 07:04:10;;;;;;;;;;;5.70;99.90;;;;;;5039120;28;20333;-78
2024/02/02 07:06:35;;;;;;;;;;;5.70;99.90;;;;;;5038411;28;19960;-78
2024/02/02 07:09:01;;;;;;;;;;;5.70;99.90;;;;;;5069798;28;19966;-78
2024/02/02 07:11:36;;;;;;;;;;;5.70;99.90;;;;;;5072589;28;20597;-78
2024/02/02 07:14:01;;;;;;;;;;;5.70;99.90;;;;;;5063219;28;19913;-79
2024/02/02 07:16:30;;;;;;;;;;;5.70;99.90;;;;;;5069656;28;20312;-80
2024/02/02 07:18:56;;;;;;;;;;;5.70;99.90;;;;;;5021491;28;19921;-78
2024/02/02 07:21:31;;;;;;;;;;;5.70;99.90;;;;;;5021559;28;19946;-78
2024/02/02 07:23:57;;;;;;;;;;;5.70;99.90;;;;;;5054735;28;20256;-78
2024/02/02 07:26:22;;;;;;;;;;;5.70;99.90;;;;;;5054987;28;19917;-79
2024/02/02 07:28:48;;;;;;;;;;;5.70;99.90;;;;;;5055764;28;20241;-79
2024/02/02 07:31:16;;;;;;;;;;;5.70;99.90;;;;;;5055066;28;20329;-77
2024/02/02 07:33:43;;;;;;;;;;;5.80;99.90;;;;;;5039706;28;19996;-77
2024/02/02 07:36:14;;;;;;;;;;;5.80;99.90;;;;;;5057420;28;19932;-78
2024/02/02 07:38:45;;;;;;;;;;;5.80;99.90;;;;;;5073250;28;19912;-79
2024/02/02 07:41:18;;;;;;;;;;;5.80;99.90;;;;;;5039389;28;19962;-77
2024/02/02 07:43:44;;;;;;;;;;;5.80;99.90;;;;;;5059225;28;19928;-77
2024/02/02 07:46:09;;;;;;;;;;;5.80;99.90;;;;;;5013244;28;19921;-78
2024/02/02 07:48:36;;;;;;;;;;;5.90;99.90;;;;;;5035338;28;20618;-79
2024/02/02 07:51:04;;;;;;;;;;;5.80;99.90;;;;;;5063083;28;19917;-78
2024/02/02 07:53:29;;;;;;;;;;;5.80;99.90;;;;;;5038370;28;20353;-77
2024/02/02 07:55:55;;;;;;;;;;;5.90;99.90;;;;;;5038412;28;19921;-78
2024/02/02 07:58:21;;;;;;;;;;;5.90;99.90;;;;;;5034798;28;19990;-78
2024/02/02 08:00:47;;;;;;;;;;;5.90;99.90;;;;;;5021617;28;19960;-77
2024/02/02 08:03:13;;;;;;;;;;;5.90;99.90;;;;;;5037777;28;19916;-78
2024/02/02 08:05:39;;;;;;;;;;;5.90;99.90;;;;;;5054447;28;19932;-78
2024/02/02 08:08:05;;;;;;;;;;;5.90;99.90;;;;;;5054826;28;19913;-78
2024/02/02 08:10:31;;;;;;;;;;;6.00;99.90;;;;;;5037966;28;19920;-78
2024/02/02 08:12:56;;;;;;;;;;;5.90;99.90;;;;;;5044160;28;19913;-77
2024/02/02 08:15:23;;;;;;;;;;;6.00;99.90;;;;;;5037349;28;19917;-78
2024/02/02 08:17:49;;;;;;;;;;;6.00;99.90;;;;;;5054459;28;19921;-77
2024/02/02 08:20:14;;;;;;;;;;;6.00;99.90;;;;;;5070529;28;19999;-78
2024/02/02 08:22:43;;;;;;;;;;;6.10;99.90;;;;;;5052946;28;20078;-78
2024/02/02 08:25:10;;;;;;;;;;;6.00;99.90;;;;;;5065041;28;19924;-78
2024/02/02 08:27:37;;;;;;;;;;;6.00;99.90;;;;;;5073125;28;20030;-79
2024/02/02 08:30:05;;;;;;;;;;;6.10;99.90;;;;;;5072863;28;19916;-77
2024/02/02 08:32:30;;;;;;;;;;;6.10;99.90;;;;;;5067860;28;20482;-74
2024/02/02 08:35:00;;;;;;;;;;;6.10;99.90;;;;;;5053196;28;19927;-75
2024/02/02 08:37:32;;;;;;;;;;;6.20;99.90;;;;;;5035600;28;20136;-74
2024/02/02 08:39:58;;;;;;;;;;;6.20;99.90;;;;;;5065381;28;20301;-74
2024/02/02 08:42:24;;;;;;;;;;;6.20;99.90;;;;;;5051787;28;19928;-74
2024/02/02 08:44:53;;;;;;;;;;;6.20;99.90;;;;;;5062010;28;19916;-74
2024/02/02 08:47:19;;;;;;;;;;;6.30;99.90;;;;;;5056668;28;19964;-75
2024/02/02 08:49:53;;;;;;;;;;;6.30;99.90;;;;;;5051524;28;19930;-75
2024/02/02 08:52:35;;;;;;;;;;;6.30;99.90;;;;;;5052938;28;19924;-75
2024/02/02 08:55:03;;;;;;;;;;;6.30;99.90;;;;;;5069481;28;19913;-75
2024/02/02 08:57:29;;;;;;;;;;;6.30;99.90;;;;;;5053855;28;19917;-74
2024/02/02 08:59:55;;;;;;;;;;;6.30;99.90;;;;;;5063901;28;19917;-75
2024/02/02 09:02:39;;;;;;;;;;;6.40;99.90;;;;;;5054532;28;19928;-75
2024/02/02 09:05:21;;;;;;;;;;;6.40;99.90;;;;;;5033731;28;19925;-74
2024/02/02 09:07:48;;;;;;;;;;;6.50;99.90;;;;;;5049618;28;20304;-74
2024/02/02 09:10:29;;;;;;;;;;;6.50;99.90;;;;;;5046465;28;19925;-74
2024/02/02 09:12:54;;;;;;;;;;;6.60;99.90;;;;;;5068365;28;19966;-74
2024/02/02 09:15:20;;;;;;;;;;;6.60;99.90;;;;;;5020468;28;19924;-75
2024/02/02 09:17:46;;;;;;;;;;;6.60;99.90;;;;;;5053216;28;19913;-74
2024/02/02 09:20:12;;;;;;;;;;;6.60;99.90;;;;;;5052826;28;19917;-74
2024/02/02 09:22:38;;;;;;;;;;;6.70;99.90;;;;;;5064976;28;20205;-74
2024/02/02 09:25:03;;;;;;;;;;;6.70;99.90;;;;;;5051956;28;19920;-74
2024/02/02 09:27:29;;;;;;;;;;;6.70;99.90;;;;;;5035735;28;19932;-74
2024/02/02 09:29:54;;;;;;;;;;;6.70;99.90;;;;;;5061662;28;19970;-74
2024/02/02 09:32:20;;;;;;;;;;;6.70;99.90;;;;;;5057727;28;20333;-74
2024/02/02 09:34:46;;;;;;;;;;;6.80;99.90;;;;;;5052276;28;20253;-74
2024/02/02 09:37:22;;;;;;;;;;;6.70;99.90;;;;;;5040400;28;19974;-74
2024/02/02 09:39:49;;;;;;;;;;;6.70;99.90;;;;;;5069499;28;19917;-74
2024/02/02 09:42:15;;;;;;;;;;;6.80;99.90;;;;;;5055935;28;19955;-74
2024/02/02 09:44:43;;;;;;;;;;;6.80;99.90;;;;;;5056625;28;20309;-74
2024/02/02 09:47:18;;;;;;;;;;;6.80;99.90;;;;;;5069702;28;20357;-74
2024/02/02 09:49:59;;;;;;;;;;;6.80;99.90;;;;;;5065733;28;19946;-74
2024/02/02 09:52:25;;;;;;;;;;;6.80;99.90;;;;;;5042914;28;20337;-74
2024/02/02 09:55:01;;;;;;;;;;;6.80;99.90;;;;;;5066850;28;19927;-75
2024/02/02 09:57:29;;;;;;;;;;;6.80;99.90;;;;;;5038963;28;19912;-74
2024/02/02 10:00:14;;;;;;;;;;;6.90;99.90;;;;;;5056793;28;20478;-76
2024/02/02 10:02:58;;;;;;;;;;;6.90;99.90;;;;;;5070990;28;19920;-74
2024/02/02 10:05:30;;;;;;;;;;;7.00;99.90;;;;;;5037643;28;19928;-75
2024/02/02 10:08:04;;;;;;;;;;;7.00;99.90;;;;;;5056931;28;19921;-74
2024/02/02 10:10:30;;;;;;;;;;;7.00;99.90;;;;;;5036795;28;19964;-74
2024/02/02 10:13:17;;;;;;;;;;;7.00;99.90;;;;;;5051615;28;19951;-74
2024/02/02 10:15:49;;;;;;;;;;;7.10;99.90;;;;;;5034973;28;19913;-74
2024/02/02 10:18:14;;;;;;;;;;;7.10;99.90;;;;;;5067240;28;19921;-74
2024/02/02 10:20:40;;;;;;;;;;;7.10;99.90;;;;;;5055992;28;19913;-74
2024/02/02 10:23:24;;;;;;;;;;;7.20;99.90;;;;;;5055902;28;19913;-75
2024/02/02 10:26:08;;;;;;;;;;;7.20;99.90;;;;;;5038094;28;19951;-74
2024/02/02 10:28:39;;;;;;;;;;;7.30;99.90;;;;;;5035686;28;19924;-74
2024/02/02 10:31:08;;;;;;;;;;;7.30;99.90;;;;;;5035519;28;19918;-74
2024/02/02 10:33:33;;;;;;;;;;;7.30;99.90;;;;;;5023457;28;19983;-74
2024/02/02 10:36:02;;;;;;;;;;;7.30;99.90;;;;;;5030098;28;19917;-74
2024/02/02 10:38:28;;;;;;;;;;;7.40;99.90;;;;;;5033415;28;19928;-74
2024/02/02 10:41:15;;;;;;;;;;;7.40;99.90;;;;;;5044621;28;19917;-75
2024/02/02 10:44:07;;;;;;;;;;;7.40;99.90;;;;;;5034562;28;19980;-75
2024/02/02 10:46:36;;;;;;;;;;;7.40;99.90;;;;;;5044388;28;19944;-74
2024/02/02 10:49:13;;;;;;;;;;;7.40;99.90;;;;;;5025784;28;20568;-74
2024/02/02 10:51:43;;;;;;;;;;;7.40;99.90;;;;;;5034211;28;20377;-74
2024/02/02 10:54:13;;;;;;;;;;;7.40;99.90;;;;;;5002708;28;19956;-74
2024/02/02 10:56:54;;;;;;;;;;;7.30;99.90;;;;;;5029166;28;19916;-74
2024/02/02 10:59:39;;;;;;;;;;;7.30;99.90;;;;;;5027826;28;19928;-75
2024/02/02 11:02:05;;;;;;;;;;;7.30;99.90;;;;;;5041619;28;19967;-74
2024/02/02 11:04:49;;;;;;;;;;;7.30;99.90;;;;;;5055824;28;19987;-74
2024/02/02 11:07:15;;;;;;;;;;;7.30;99.90;;;;;;5038509;28;20283;-74
2024/02/02 11:09:46;;;;;;;;;;;7.30;99.90;;;;;;5031473;28;19917;-74
2024/02/02 11:12:16;;;;;;;;;;;7.30;99.90;;;;;;5044979;28;19913;-75
2024/02/02 11:14:48;;;;;;;;;;;7.30;99.90;;;;;;5014339;28;19975;-74
2024/02/02 11:17:33;;;;;;;;;;;7.30;99.90;;;;;;5014663;28;19917;-76
2024/02/02 11:20:06;;;;;;;;;;;7.30;99.90;;;;;;5018420;28;19951;-74
2024/02/02 11:22:38;;;;;;;;;;;7.30;99.90;;;;;;5035197;28;19956;-74
2024/02/02 11:25:15;;;;;;;;;;;7.30;99.90;;;;;;5034234;28;19925;-75
2024/02/02 11:27:45;;;;;;;;;;;7.30;99.90;;;;;;5015409;28;20285;-76
2024/02/02 11:30:17;;;;;;;;;;;7.30;99.90;;;;;;5026482;28;19924;-76
2024/02/02 11:32:57;;;;;;;;;;;7.30;99.90;;;;;;5034368;28;20257;-76
2024/02/02 11:35:41;;;;;;;;;;;7.30;99.90;;;;;;5035102;28;19913;-76
2024/02/02 11:38:07;;;;;;;;;;;7.30;99.90;;;;;;5035174;28;19943;-75
2024/02/02 11:40:32;;;;;;;;;;;7.30;99.90;;;;;;5035670;28;20613;-75
2024/02/02 11:42:58;;;;;;;;;;;7.30;99.90;;;;;;5043240;28;19928;-75
2024/02/02 11:45:28;;;;;;;;;;;7.30;99.90;;;;;;5034149;28;19929;-76
2024/02/02 11:48:04;;;;;;;;;;;7.40;99.90;;;;;;5034232;28;19924;-75
2024/02/02 11:50:36;;;;;;;;;;;7.40;99.90;;;;;;5032979;28;19932;-75
2024/02/02 11:53:22;;;;;;;;;;;7.40;99.90;;;;;;5032799;28;19952;-76
2024/02/02 11:55:48;;;;;;;;;;;7.40;99.90;;;;;;5020412;28;19916;-76
2024/02/02 11:58:14;;;;;;;;;;;7.40;99.90;;;;;;5036641;28;20345;-75
2024/02/02 12:00:59;;;;;;;;;;;7.50;99.90;;;;;;5030818;28;19913;-75
2024/02/02 12:03:30;;;;;;;;;;;7.50;99.90;;;;;;5043352;28;20316;-76
2024/02/02 12:06:11;;;;;;;;;;;7.50;99.90;;;;;;5030349;28;19925;-76
2024/02/02 12:08:47;;;;;;;;;;;7.50;99.90;;;;;;5036862;28;20245;-75
2024/02/02 12:11:13;;;;;;;;;;;7.50;99.90;;;;;;5054329;28;19913;-76
2024/02/02 12:13:40;;;;;;;;;;;7.50;99.90;;;;;;5054592;28;19927;-76
2024/02/02 12:16:06;;;;;;;;;;;7.50;99.90;;;;;;5052990;28;19999;-76
2024/02/02 12:18:32;;;;;;;;;;;7.60;99.90;;;;;;5018000;28;19917;-75
2024/02/02 12:20:59;;;;;;;;;;;7.60;99.90;;;;;;5043604;28;19917;-76
2024/02/02 12:23:25;;;;;;;;;;;7.60;99.90;;;;;;5053961;28;20003;-76
2024/02/02 12:25:51;;;;;;;;;;;7.50;99.90;;;;;;5044756;28;20405;-75
2024/02/02 12:28:17;;;;;;;;;;;7.60;99.90;;;;;;5022713;28;19921;-76
2024/02/02 12:30:42;;;;;;;;;;;7.60;99.90;;;;;;5054916;28;19954;-76
2024/02/02 12:33:08;;;;;;;;;;;7.60;99.90;;;;;;5042348;28;20340;-76
2024/02/02 12:35:34;;;;;;;;;;;7.60;99.90;;;;;;5020793;28;20605;-77
2024/02/02 12:38:00;;;;;;;;;;;7.60;99.90;;;;;;5037623;28;20019;-77
2024/02/02 12:40:27;;;;;;;;;;;7.60;99.90;;;;;;5054508;28;19916;-77
2024/02/02 12:42:56;;;;;;;;;;;7.60;99.90;;;;;;5039454;28;19963;-77
2024/02/02 12:45:22;;;;;;;;;;;7.70;99.90;;;;;;5018375;28;19986;-76
2024/02/02 12:47:47;;;;;;;;;;;7.70;99.90;;;;;;5018017;28;19917;-76
2024/02/02 12:50:17;;;;;;;;;;;7.60;99.90;;;;;;5017358;28;20008;-75
2024/02/02 12:52:44;;;;;;;;;;;7.60;99.90;;;;;;5033555;28;19917;-76
2024/02/02 12:55:09;;;;;;;;;;;7.70;99.90;;;;;;5033783;28;20016;-76
2024/02/02 12:57:36;;;;;;;;;;;7.70;99.90;;;;;;5033479;28;19952;-75
2024/02/02 13:00:17;;;;;;;;;;;7.70;99.90;;;;;;5024881;28;19935;-76
2024/02/02 13:02:43;;;;;;;;;;;7.70;99.90;;;;;;5046298;28;19925;-76
2024/02/02 13:05:14;;;;;;;;;;;7.70;99.90;;;;;;5024304;28;20344;-76
2024/02/02 13:07:41;;;;;;;;;;;7.80;99.90;;;;;;5000534;28;19925;-76
2024/02/02 13:10:07;;;;;;;;;;;7.80;99.90;;;;;;5033165;28;19928;-75
2024/02/02 13:12:39;;;;;;;;;;;7.80;99.90;;;;;;5028904;28;20685;-76
2024/02/02 13:15:11;;;;;;;;;;;7.80;99.90;;;;;;5035930;28;19925;-77
2024/02/02 13:17:37;;;;;;;;;;;7.80;99.90;;;;;;5056929;28;19927;-76
2024/02/02 13:20:11;;;;;;;;;;;7.80;99.90;;;;;;5047440;28;19912;-77
2024/02/02 13:22:53;;;;;;;;;;;7.90;99.90;;;;;;5029427;28;19913;-75
2024/02/02 13:25:24;;;;;;;;;;;7.90;99.90;;;;;;5023164;28;19932;-79
2024/02/02 13:27:53;;;;;;;;;;;7.90;99.90;;;;;;5017517;28;20330;-80
2024/02/02 13:30:22;;;;;;;;;;;7.90;99.90;;;;;;5037250;28;20337;-79
2024/02/02 13:32:51;;;;;;;;;;;8.00;99.90;;;;;;5021352;28;19973;-80
2024/02/02 13:35:22;;;;;;;;;;;8.00;99.90;;;;;;5037461;28;19917;-79
2024/02/02 13:50:05;;;;;;;;;;;8.10;99.90;;;;;;5028532;28;20393;-80
2024/02/02 13:52:33;;;;;;;;;;;8.10;99.90;;;;;;5020565;28;19913;-80
2024/02/02 13:54:59;;;;;;;;;;;8.10;99.90;;;;;;5036321;28;19928;-79
2024/02/02 13:57:24;;;;;;;;;;;8.10;99.90;;;;;;5037199;28;19912;-80
2024/02/02 13:59:53;;;;;;;;;;;8.10;99.90;;;;;;5055927;28;20203;-79
2024/02/02 14:02:19;;;;;;;;;;;8.20;99.90;;;;;;5055409;28;19916;-80
2024/02/02 14:04:45;;;;;;;;;;;8.20;99.90;;;;;;5019492;28;19951;-79
2024/02/02 14:07:14;;;;;;;;;;;8.30;99.90;;;;;;5046368;28;20329;-79
2024/02/02 14:09:41;;;;;;;;;;;8.30;99.90;;;;;;5056865;28;19916;-78
2024/02/02 14:12:07;;;;;;;;;;;8.30;99.90;;;;;;5022103;28;20325;-79
2024/02/02 14:14:33;;;;;;;;;;;8.30;99.90;;;;;;5038385;28;19923;-79
2024/02/02 14:17:03;;;;;;;;;;;8.30;99.90;;;;;;5007180;28;19957;-79
2024/02/02 14:19:33;;;;;;;;;;;8.40;99.90;;;;;;5030767;28;19913;-79
2024/02/02 14:22:09;;;;;;;;;;;8.40;99.90;;;;;;5030983;28;19965;-78
2024/02/02 14:24:47;;;;;;;;;;;8.40;99.90;;;;;;5014421;28;19971;-78
2024/02/02 14:27:13;;;;;;;;;;;8.40;99.90;;;;;;5016276;28;19966;-79
2024/02/02 14:29:41;;;;;;;;;;;8.50;99.90;;;;;;5026719;28;20234;-79
2024/02/02 14:32:07;;;;;;;;;;;8.50;99.90;;;;;;4998979;28;19921;-79
2024/02/02 14:34:32;;;;;;;;;;;8.50;99.90;;;;;;5014916;28;20250;-78
2024/02/02 14:36:58;;;;;;;;;;;8.50;99.90;;;;;;5014416;28;20007;-78
2024/02/02 14:39:27;;;;;;;;;;;8.60;99.90;;;;;;5015063;28;19928;-78
2024/02/02 14:41:55;;;;;;;;;;;8.60;99.90;;;;;;5016884;28;20091;-78
2024/02/02 14:44:23;;;;;;;;;;;8.60;99.90;;;;;;5029971;28;20341;-78
2024/02/02 14:46:48;;;;;;;;;;;8.60;99.90;;;;;;5014498;28;19917;-79